sensor_id;sensor_type;location;lat;lon;timestamp;P1;durP1;ratioP1;P2;durP2;ratioP2
16839;SDS011;8536;52.150;11.572;2022-08-19T00:00:57;14.57;;;13.25;;
16839;SDS011;8536;52.150;11.572;2022-08-19T00:03:24;14.85;;;13.43;;
16839;SDS011;8536;52.150;11.572;2022-08-19T00:05:51;14.25;;;12.95;;
16839;SDS011;8536;52.150;11.572;2022-08-19T00:08:17;15.57;;;14.07;;
16839;SDS011;8536;52.150;11.572;2022-08-19T00:10:44;15.82;;;14.20;;
16839;SDS011;8536;52.150;11.572;2022-08-19T00:13:11;15.32;;;13.68;;
16839;SDS011;8536;52.150;11.572;2022-08-19T00:15:38;16.42;;;14.82;;
16839;SDS011;8536;52.150;11.572;2022-08-19T00:18:05;16.60;;;15.00;;
16839;SDS011;8536;52.150;11.572;2022-08-19T00:20:31;16.02;;;14.52;;
16839;SDS011;8536;52.150;11.572;2022-08-19T00:22:58;16.50;;;15.07;;
16839;SDS011;8536;52.150;11.572;2022-08-19T00:25:24;17.10;;;15.48;;
16839;SDS011;8536;52.150;11.572;2022-08-19T00:27:55;16.70;;;15.05;;
16839;SDS011;8536;52.150;11.572;2022-08-19T00:30:22;17.45;;;15.88;;
16839;SDS011;8536;52.150;11.572;2022-08-19T00:32:48;17.98;;;16.27;;
16839;SDS011;8536;52.150;11.572;2022-08-19T00:35:15;16.90;;;15.40;;
16839;SDS011;8536;52.150;11.572;2022-08-19T00:37:42;16.50;;;14.95;;
16839;SDS011;8536;52.150;11.572;2022-08-19T00:40:10;16.90;;;15.25;;
16839;SDS011;8536;52.150;11.572;2022-08-19T00:42:37;16.95;;;15.23;;
16839;SDS011;8536;52.150;11.572;2022-08-19T00:45:08;17.65;;;15.85;;
16839;SDS011;8536;52.150;11.572;2022-08-19T00:47:41;16.67;;;15.07;;
16839;SDS011;8536;52.150;11.572;2022-08-19T00:50:07;17.52;;;15.77;;
16839;SDS011;8536;52.150;11.572;2022-08-19T00:52:36;18.25;;;15.82;;
16839;SDS011;8536;52.150;11.572;2022-08-19T00:55:16;17.92;;;16.20;;
16839;SDS011;8536;52.150;11.572;2022-08-19T00:57:46;18.58;;;16.88;;
16839;SDS011;8536;52.150;11.572;2022-08-19T01:00:18;16.75;;;15.10;;
16839;SDS011;8536;52.150;11.572;2022-08-19T01:02:45;17.90;;;16.08;;
16839;SDS011;8536;52.150;11.572;2022-08-19T01:05:13;17.38;;;15.77;;
16839;SDS011;8536;52.150;11.572;2022-08-19T01:07:41;17.45;;;15.82;;
16839;SDS011;8536;52.150;11.572;2022-08-19T01:10:10;16.85;;;15.32;;
16839;SDS011;8536;52.150;11.572;2022-08-19T01:12:38;16.40;;;15.00;;
16839;SDS011;8536;52.150;11.572;2022-08-19T01:15:05;17.20;;;15.60;;
16839;SDS011;8536;52.150;11.572;2022-08-19T01:17:34;18.38;;;16.67;;
16839;SDS011;8536;52.150;11.572;2022-08-19T01:20:03;17.65;;;16.05;;
16839;SDS011;8536;52.150;11.572;2022-08-19T01:22:30;18.08;;;16.25;;
16839;SDS011;8536;52.150;11.572;2022-08-19T01:25:00;17.40;;;15.70;;
16839;SDS011;8536;52.150;11.572;2022-08-19T01:27:36;16.95;;;15.27;;
16839;SDS011;8536;52.150;11.572;2022-08-19T01:30:10;16.90;;;15.40;;
16839;SDS011;8536;52.150;11.572;2022-08-19T01:32:39;17.77;;;16.08;;
16839;SDS011;8536;52.150;11.572;2022-08-19T01:35:05;20.13;;;18.23;;
16839;SDS011;8536;52.150;11.572;2022-08-19T01:37:41;19.63;;;17.73;;
16839;SDS011;8536;52.150;11.572;2022-08-19T01:40:09;18.02;;;16.27;;
16839;SDS011;8536;52.150;11.572;2022-08-19T01:42:36;17.67;;;15.88;;
16839;SDS011;8536;52.150;11.572;2022-08-19T01:45:03;19.05;;;16.05;;
16839;SDS011;8536;52.150;11.572;2022-08-19T01:47:31;17.30;;;15.60;;
16839;SDS011;8536;52.150;11.572;2022-08-19T01:49:57;17.77;;;16.00;;
16839;SDS011;8536;52.150;11.572;2022-08-19T01:52:24;17.85;;;16.02;;
16839;SDS011;8536;52.150;11.572;2022-08-19T01:54:50;16.73;;;15.23;;
16839;SDS011;8536;52.150;11.572;2022-08-19T01:57:17;16.70;;;15.00;;
16839;SDS011;8536;52.150;11.572;2022-08-19T01:59:43;15.77;;;14.25;;
16839;SDS011;8536;52.150;11.572;2022-08-19T02:02:11;15.73;;;14.32;;
16839;SDS011;8536;52.150;11.572;2022-08-19T02:04:37;16.13;;;14.50;;
16839;SDS011;8536;52.150;11.572;2022-08-19T02:07:05;17.20;;;15.55;;
16839;SDS011;8536;52.150;11.572;2022-08-19T02:09:34;16.50;;;14.90;;
16839;SDS011;8536;52.150;11.572;2022-08-19T02:12:01;16.40;;;14.88;;
16839;SDS011;8536;52.150;11.572;2022-08-19T02:14:27;16.00;;;14.55;;
16839;SDS011;8536;52.150;11.572;2022-08-19T02:16:53;17.05;;;15.55;;
16839;SDS011;8536;52.150;11.572;2022-08-19T02:19:20;15.48;;;14.07;;
16839;SDS011;8536;52.150;11.572;2022-08-19T02:21:46;17.15;;;15.38;;
16839;SDS011;8536;52.150;11.572;2022-08-19T02:24:13;17.48;;;14.65;;
16839;SDS011;8536;52.150;11.572;2022-08-19T02:26:40;17.40;;;15.70;;
16839;SDS011;8536;52.150;11.572;2022-08-19T02:29:06;16.60;;;14.90;;
16839;SDS011;8536;52.150;11.572;2022-08-19T02:31:32;16.05;;;14.55;;
16839;SDS011;8536;52.150;11.572;2022-08-19T02:33:59;15.77;;;14.27;;
16839;SDS011;8536;52.150;11.572;2022-08-19T02:36:26;15.85;;;14.35;;
16839;SDS011;8536;52.150;11.572;2022-08-19T02:38:55;16.15;;;14.50;;
16839;SDS011;8536;52.150;11.572;2022-08-19T02:41:23;15.77;;;14.23;;
16839;SDS011;8536;52.150;11.572;2022-08-19T02:43:53;17.00;;;15.13;;
16839;SDS011;8536;52.150;11.572;2022-08-19T02:46:40;17.23;;;15.40;;
16839;SDS011;8536;52.150;11.572;2022-08-19T02:49:07;17.13;;;15.27;;
16839;SDS011;8536;52.150;11.572;2022-08-19T02:51:35;17.48;;;15.85;;
16839;SDS011;8536;52.150;11.572;2022-08-19T02:54:03;19.15;;;16.98;;
16839;SDS011;8536;52.150;11.572;2022-08-19T02:56:31;17.98;;;16.17;;
16839;SDS011;8536;52.150;11.572;2022-08-19T02:58:57;17.52;;;15.95;;
16839;SDS011;8536;52.150;11.572;2022-08-19T03:01:28;18.23;;;16.33;;
16839;SDS011;8536;52.150;11.572;2022-08-19T03:03:57;18.35;;;16.52;;
16839;SDS011;8536;52.150;11.572;2022-08-19T03:06:25;21.20;;;18.92;;
16839;SDS011;8536;52.150;11.572;2022-08-19T03:08:52;19.50;;;17.23;;
16839;SDS011;8536;52.150;11.572;2022-08-19T03:11:22;18.48;;;16.77;;
16839;SDS011;8536;52.150;11.572;2022-08-19T03:13:50;23.15;;;17.05;;
16839;SDS011;8536;52.150;11.572;2022-08-19T03:16:17;19.15;;;17.27;;
16839;SDS011;8536;52.150;11.572;2022-08-19T03:18:44;20.45;;;16.98;;
16839;SDS011;8536;52.150;11.572;2022-08-19T03:21:19;19.48;;;17.42;;
16839;SDS011;8536;52.150;11.572;2022-08-19T03:24:03;20.77;;;17.08;;
16839;SDS011;8536;52.150;11.572;2022-08-19T03:26:32;19.08;;;17.10;;
16839;SDS011;8536;52.150;11.572;2022-08-19T03:29:03;19.52;;;17.50;;
16839;SDS011;8536;52.150;11.572;2022-08-19T03:31:31;19.33;;;17.17;;
16839;SDS011;8536;52.150;11.572;2022-08-19T03:34:17;20.80;;;17.95;;
16839;SDS011;8536;52.150;11.572;2022-08-19T03:36:45;19.83;;;17.83;;
16839;SDS011;8536;52.150;11.572;2022-08-19T03:39:12;21.60;;;18.05;;
16839;SDS011;8536;52.150;11.572;2022-08-19T03:41:40;18.98;;;16.98;;
16839;SDS011;8536;52.150;11.572;2022-08-19T03:44:11;20.75;;;18.08;;
16839;SDS011;8536;52.150;11.572;2022-08-19T03:46:43;19.42;;;17.42;;
16839;SDS011;8536;52.150;11.572;2022-08-19T03:49:10;19.92;;;17.70;;
16839;SDS011;8536;52.150;11.572;2022-08-19T03:51:39;20.52;;;17.40;;
16839;SDS011;8536;52.150;11.572;2022-08-19T03:54:08;20.27;;;18.30;;
16839;SDS011;8536;52.150;11.572;2022-08-19T03:56:39;20.10;;;17.88;;
16839;SDS011;8536;52.150;11.572;2022-08-19T03:59:07;19.83;;;17.85;;
16839;SDS011;8536;52.150;11.572;2022-08-19T04:01:37;20.02;;;18.00;;
16839;SDS011;8536;52.150;11.572;2022-08-19T04:04:03;20.98;;;18.38;;
16839;SDS011;8536;52.150;11.572;2022-08-19T04:06:31;21.58;;;18.63;;
16839;SDS011;8536;52.150;11.572;2022-08-19T04:09:00;20.67;;;18.50;;
16839;SDS011;8536;52.150;11.572;2022-08-19T04:11:36;20.42;;;18.35;;
16839;SDS011;8536;52.150;11.572;2022-08-19T04:14:13;22.40;;;19.13;;
16839;SDS011;8536;52.150;11.572;2022-08-19T04:16:44;18.67;;;16.85;;
16839;SDS011;8536;52.150;11.572;2022-08-19T04:19:13;21.92;;;18.60;;
16839;SDS011;8536;52.150;11.572;2022-08-19T04:21:42;20.30;;;17.58;;
16839;SDS011;8536;52.150;11.572;2022-08-19T04:24:13;20.85;;;18.23;;
16839;SDS011;8536;52.150;11.572;2022-08-19T04:26:40;18.65;;;16.65;;
16839;SDS011;8536;52.150;11.572;2022-08-19T04:29:08;20.10;;;17.73;;
16839;SDS011;8536;52.150;11.572;2022-08-19T04:31:38;19.85;;;17.20;;
16839;SDS011;8536;52.150;11.572;2022-08-19T04:34:06;20.85;;;17.77;;
16839;SDS011;8536;52.150;11.572;2022-08-19T04:36:34;19.20;;;17.20;;
16839;SDS011;8536;52.150;11.572;2022-08-19T04:39:03;19.27;;;17.35;;
16839;SDS011;8536;52.150;11.572;2022-08-19T04:41:31;19.45;;;17.10;;
16839;SDS011;8536;52.150;11.572;2022-08-19T04:44:17;19.17;;;17.27;;
16839;SDS011;8536;52.150;11.572;2022-08-19T04:46:45;18.85;;;16.83;;
16839;SDS011;8536;52.150;11.572;2022-08-19T04:49:17;18.40;;;16.45;;
16839;SDS011;8536;52.150;11.572;2022-08-19T04:51:45;17.02;;;15.25;;
16839;SDS011;8536;52.150;11.572;2022-08-19T04:54:14;18.17;;;16.15;;
16839;SDS011;8536;52.150;11.572;2022-08-19T04:57:01;17.33;;;15.52;;
16839;SDS011;8536;52.150;11.572;2022-08-19T04:59:27;17.27;;;15.38;;
16839;SDS011;8536;52.150;11.572;2022-08-19T05:01:54;18.75;;;16.70;;
16839;SDS011;8536;52.150;11.572;2022-08-19T05:04:20;19.90;;;16.25;;
16839;SDS011;8536;52.150;11.572;2022-08-19T05:06:47;17.73;;;15.82;;
16839;SDS011;8536;52.150;11.572;2022-08-19T05:09:15;17.50;;;15.65;;
16839;SDS011;8536;52.150;11.572;2022-08-19T05:11:42;15.65;;;14.02;;
16839;SDS011;8536;52.150;11.572;2022-08-19T05:14:10;19.17;;;16.13;;
16839;SDS011;8536;52.150;11.572;2022-08-19T05:16:39;16.25;;;14.70;;
16839;SDS011;8536;52.150;11.572;2022-08-19T05:19:06;16.15;;;14.48;;
16839;SDS011;8536;52.150;11.572;2022-08-19T05:21:51;15.82;;;14.15;;
16839;SDS011;8536;52.150;11.572;2022-08-19T05:24:36;15.70;;;14.15;;
16839;SDS011;8536;52.150;11.572;2022-08-19T05:27:23;16.02;;;14.30;;
16839;SDS011;8536;52.150;11.572;2022-08-19T05:29:49;16.92;;;15.13;;
16839;SDS011;8536;52.150;11.572;2022-08-19T05:32:15;17.08;;;15.40;;
16839;SDS011;8536;52.150;11.572;2022-08-19T05:34:42;14.80;;;13.15;;
16839;SDS011;8536;52.150;11.572;2022-08-19T05:37:08;15.20;;;13.07;;
16839;SDS011;8536;52.150;11.572;2022-08-19T05:39:35;14.57;;;13.18;;
16839;SDS011;8536;52.150;11.572;2022-08-19T05:42:04;15.43;;;13.82;;
16839;SDS011;8536;52.150;11.572;2022-08-19T05:44:35;15.73;;;14.07;;
16839;SDS011;8536;52.150;11.572;2022-08-19T05:47:04;17.55;;;13.70;;
16839;SDS011;8536;52.150;11.572;2022-08-19T05:49:32;15.45;;;13.85;;
16839;SDS011;8536;52.150;11.572;2022-08-19T05:52:01;15.18;;;13.57;;
16839;SDS011;8536;52.150;11.572;2022-08-19T05:54:31;17.25;;;13.95;;
16839;SDS011;8536;52.150;11.572;2022-08-19T05:56:58;14.55;;;13.05;;
16839;SDS011;8536;52.150;11.572;2022-08-19T05:59:24;18.05;;;14.18;;
16839;SDS011;8536;52.150;11.572;2022-08-19T06:01:51;15.27;;;13.57;;
16839;SDS011;8536;52.150;11.572;2022-08-19T06:04:20;16.45;;;13.90;;
16839;SDS011;8536;52.150;11.572;2022-08-19T06:06:49;16.85;;;14.70;;
16839;SDS011;8536;52.150;11.572;2022-08-19T06:09:21;17.10;;;14.02;;
16839;SDS011;8536;52.150;11.572;2022-08-19T06:11:52;16.23;;;14.55;;
16839;SDS011;8536;52.150;11.572;2022-08-19T06:14:27;16.23;;;14.63;;
16839;SDS011;8536;52.150;11.572;2022-08-19T06:16:55;16.15;;;13.35;;
16839;SDS011;8536;52.150;11.572;2022-08-19T06:19:22;17.05;;;14.65;;
16839;SDS011;8536;52.150;11.572;2022-08-19T06:21:50;15.35;;;13.77;;
16839;SDS011;8536;52.150;11.572;2022-08-19T06:24:19;16.50;;;14.25;;
16839;SDS011;8536;52.150;11.572;2022-08-19T06:26:49;13.98;;;12.57;;
16839;SDS011;8536;52.150;11.572;2022-08-19T06:29:23;15.45;;;13.95;;
16839;SDS011;8536;52.150;11.572;2022-08-19T06:31:51;14.15;;;12.68;;
16839;SDS011;8536;52.150;11.572;2022-08-19T06:34:20;15.23;;;13.13;;
16839;SDS011;8536;52.150;11.572;2022-08-19T06:36:47;15.13;;;13.48;;
16839;SDS011;8536;52.150;11.572;2022-08-19T06:39:19;14.27;;;12.77;;
16839;SDS011;8536;52.150;11.572;2022-08-19T06:41:50;15.40;;;13.77;;
16839;SDS011;8536;52.150;11.572;2022-08-19T06:44:25;17.10;;;15.00;;
16839;SDS011;8536;52.150;11.572;2022-08-19T06:46:56;16.00;;;14.30;;
16839;SDS011;8536;52.150;11.572;2022-08-19T06:49:23;16.17;;;14.48;;
16839;SDS011;8536;52.150;11.572;2022-08-19T06:51:51;16.80;;;14.50;;
16839;SDS011;8536;52.150;11.572;2022-08-19T06:54:17;15.20;;;13.70;;
16839;SDS011;8536;52.150;11.572;2022-08-19T06:56:45;15.98;;;13.95;;
16839;SDS011;8536;52.150;11.572;2022-08-19T06:59:13;16.75;;;14.95;;
16839;SDS011;8536;52.150;11.572;2022-08-19T07:01:42;19.75;;;15.90;;
16839;SDS011;8536;52.150;11.572;2022-08-19T07:04:17;20.55;;;15.57;;
16839;SDS011;8536;52.150;11.572;2022-08-19T07:06:46;18.65;;;15.77;;
16839;SDS011;8536;52.150;11.572;2022-08-19T07:09:20;17.83;;;15.93;;
16839;SDS011;8536;52.150;11.572;2022-08-19T07:11:47;17.77;;;14.48;;
16839;SDS011;8536;52.150;11.572;2022-08-19T07:14:16;17.27;;;15.38;;
16839;SDS011;8536;52.150;11.572;2022-08-19T07:16:45;17.55;;;15.60;;
16839;SDS011;8536;52.150;11.572;2022-08-19T07:19:16;16.33;;;14.60;;
16839;SDS011;8536;52.150;11.572;2022-08-19T07:21:46;16.92;;;15.07;;
16839;SDS011;8536;52.150;11.572;2022-08-19T07:24:14;16.35;;;14.63;;
16839;SDS011;8536;52.150;11.572;2022-08-19T07:26:42;16.88;;;14.85;;
16839;SDS011;8536;52.150;11.572;2022-08-19T07:29:09;17.20;;;14.93;;
16839;SDS011;8536;52.150;11.572;2022-08-19T07:31:39;17.92;;;15.00;;
16839;SDS011;8536;52.150;11.572;2022-08-19T07:34:09;17.63;;;15.77;;
16839;SDS011;8536;52.150;11.572;2022-08-19T07:36:38;18.80;;;17.00;;
16839;SDS011;8536;52.150;11.572;2022-08-19T07:39:17;21.05;;;18.63;;
16839;SDS011;8536;52.150;11.572;2022-08-19T07:41:55;19.92;;;17.80;;
16839;SDS011;8536;52.150;11.572;2022-08-19T07:44:22;18.83;;;16.83;;
16839;SDS011;8536;52.150;11.572;2022-08-19T07:46:51;20.42;;;18.42;;
16839;SDS011;8536;52.150;11.572;2022-08-19T07:49:19;21.70;;;19.38;;
16839;SDS011;8536;52.150;11.572;2022-08-19T07:51:47;20.92;;;17.95;;
16839;SDS011;8536;52.150;11.572;2022-08-19T07:54:16;20.10;;;17.90;;
16839;SDS011;8536;52.150;11.572;2022-08-19T07:56:43;19.25;;;17.25;;
16839;SDS011;8536;52.150;11.572;2022-08-19T07:59:10;19.50;;;16.52;;
16839;SDS011;8536;52.150;11.572;2022-08-19T08:01:36;19.85;;;15.23;;
16839;SDS011;8536;52.150;11.572;2022-08-19T08:04:07;19.65;;;16.60;;
16839;SDS011;8536;52.150;11.572;2022-08-19T08:06:52;18.35;;;16.45;;
16839;SDS011;8536;52.150;11.572;2022-08-19T08:09:39;18.52;;;15.77;;
16839;SDS011;8536;52.150;11.572;2022-08-19T08:12:12;18.08;;;15.63;;
16839;SDS011;8536;52.150;11.572;2022-08-19T08:15:00;17.75;;;15.85;;
16839;SDS011;8536;52.150;11.572;2022-08-19T08:17:33;19.10;;;15.52;;
16839;SDS011;8536;52.150;11.572;2022-08-19T08:20:15;17.15;;;15.35;;
16839;SDS011;8536;52.150;11.572;2022-08-19T08:22:43;19.55;;;16.02;;
16839;SDS011;8536;52.150;11.572;2022-08-19T08:25:29;16.08;;;14.40;;
16839;SDS011;8536;52.150;11.572;2022-08-19T08:27:59;19.13;;;14.77;;
16839;SDS011;8536;52.150;11.572;2022-08-19T08:30:27;16.17;;;14.48;;
16839;SDS011;8536;52.150;11.572;2022-08-19T08:32:58;17.05;;;13.85;;
16839;SDS011;8536;52.150;11.572;2022-08-19T08:35:24;15.95;;;13.50;;
16839;SDS011;8536;52.150;11.572;2022-08-19T08:37:52;16.58;;;14.05;;
16839;SDS011;8536;52.150;11.572;2022-08-19T08:45:38;14.98;;;12.00;;
16839;SDS011;8536;52.150;11.572;2022-08-19T08:48:18;12.43;;;10.98;;
16839;SDS011;8536;52.150;11.572;2022-08-19T08:50:49;11.23;;;9.98;;
16839;SDS011;8536;52.150;11.572;2022-08-19T08:53:18;10.30;;;9.27;;
16839;SDS011;8536;52.150;11.572;2022-08-19T08:55:55;11.75;;;10.55;;
16839;SDS011;8536;52.150;11.572;2022-08-19T08:58:26;12.02;;;10.77;;
16839;SDS011;8536;52.150;11.572;2022-08-19T09:01:19;11.68;;;10.55;;
16839;SDS011;8536;52.150;11.572;2022-08-19T09:03:46;12.18;;;10.73;;
16839;SDS011;8536;52.150;11.572;2022-08-19T09:06:29;11.48;;;10.35;;
16839;SDS011;8536;52.150;11.572;2022-08-19T09:14:48;11.77;;;10.57;;
16839;SDS011;8536;52.150;11.572;2022-08-19T09:17:19;12.00;;;10.23;;
16839;SDS011;8536;52.150;11.572;2022-08-19T09:19:54;12.35;;;11.02;;
16839;SDS011;8536;52.150;11.572;2022-08-19T09:22:42;11.73;;;10.15;;
16839;SDS011;8536;52.150;11.572;2022-08-19T09:25:14;12.50;;;11.15;;
16839;SDS011;8536;52.150;11.572;2022-08-19T09:27:52;13.73;;;11.20;;
16839;SDS011;8536;52.150;11.572;2022-08-19T09:30:28;12.32;;;9.93;;
16839;SDS011;8536;52.150;11.572;2022-08-19T09:32:56;11.50;;;9.85;;
16839;SDS011;8536;52.150;11.572;2022-08-19T09:35:24;11.55;;;10.02;;
16839;SDS011;8536;52.150;11.572;2022-08-19T09:37:53;11.27;;;9.95;;
16839;SDS011;8536;52.150;11.572;2022-08-19T09:40:23;11.93;;;10.55;;
16839;SDS011;8536;52.150;11.572;2022-08-19T09:42:50;13.85;;;10.57;;
16839;SDS011;8536;52.150;11.572;2022-08-19T09:45:19;10.95;;;9.65;;
16839;SDS011;8536;52.150;11.572;2022-08-19T09:47:50;11.73;;;10.13;;
16839;SDS011;8536;52.150;11.572;2022-08-19T09:50:19;12.00;;;10.18;;
16839;SDS011;8536;52.150;11.572;2022-08-19T09:52:46;11.32;;;10.10;;
16839;SDS011;8536;52.150;11.572;2022-08-19T09:55:23;10.27;;;9.27;;
16839;SDS011;8536;52.150;11.572;2022-08-19T09:57:58;12.73;;;11.07;;
16839;SDS011;8536;52.150;11.572;2022-08-19T10:00:29;12.18;;;10.23;;
16839;SDS011;8536;52.150;11.572;2022-08-19T10:02:56;11.63;;;10.35;;
16839;SDS011;8536;52.150;11.572;2022-08-19T10:05:23;10.48;;;9.38;;
16839;SDS011;8536;52.150;11.572;2022-08-19T10:08:08;11.82;;;10.32;;
16839;SDS011;8536;52.150;11.572;2022-08-19T10:10:40;11.38;;;10.23;;
16839;SDS011;8536;52.150;11.572;2022-08-19T10:13:12;16.88;;;11.75;;
16839;SDS011;8536;52.150;11.572;2022-08-19T10:15:41;12.05;;;10.43;;
16839;SDS011;8536;52.150;11.572;2022-08-19T10:18:12;13.15;;;10.70;;
16839;SDS011;8536;52.150;11.572;2022-08-19T10:20:39;11.65;;;9.98;;
16839;SDS011;8536;52.150;11.572;2022-08-19T10:23:08;12.23;;;10.63;;
16839;SDS011;8536;52.150;11.572;2022-08-19T10:25:34;12.65;;;10.50;;
16839;SDS011;8536;52.150;11.572;2022-08-19T10:28:03;12.90;;;11.50;;
16839;SDS011;8536;52.150;11.572;2022-08-19T10:30:35;18.55;;;10.65;;
16839;SDS011;8536;52.150;11.572;2022-08-19T10:33:03;10.95;;;9.55;;
16839;SDS011;8536;52.150;11.572;2022-08-19T10:35:36;11.70;;;9.70;;
16839;SDS011;8536;52.150;11.572;2022-08-19T10:38:21;11.75;;;9.57;;
16839;SDS011;8536;52.150;11.572;2022-08-19T10:40:56;12.88;;;10.75;;
16839;SDS011;8536;52.150;11.572;2022-08-19T10:43:23;11.60;;;10.38;;
16839;SDS011;8536;52.150;11.572;2022-08-19T10:45:54;12.55;;;10.90;;
16839;SDS011;8536;52.150;11.572;2022-08-19T10:48:25;10.57;;;9.18;;
16839;SDS011;8536;52.150;11.572;2022-08-19T10:50:52;10.68;;;9.20;;
16839;SDS011;8536;52.150;11.572;2022-08-19T10:53:48;11.60;;;9.85;;
16839;SDS011;8536;52.150;11.572;2022-08-19T10:56:14;10.90;;;8.80;;
16839;SDS011;8536;52.150;11.572;2022-08-19T10:58:59;11.35;;;10.15;;
16839;SDS011;8536;52.150;11.572;2022-08-19T11:01:27;11.50;;;10.27;;
16839;SDS011;8536;52.150;11.572;2022-08-19T11:03:56;12.00;;;9.38;;
16839;SDS011;8536;52.150;11.572;2022-08-19T11:06:23;12.30;;;9.70;;
16839;SDS011;8536;52.150;11.572;2022-08-19T11:08:53;12.43;;;10.20;;
16839;SDS011;8536;52.150;11.572;2022-08-19T11:11:20;12.52;;;10.35;;
16839;SDS011;8536;52.150;11.572;2022-08-19T11:13:47;11.10;;;9.00;;
16839;SDS011;8536;52.150;11.572;2022-08-19T11:16:17;10.85;;;9.73;;
16839;SDS011;8536;52.150;11.572;2022-08-19T11:18:49;11.05;;;9.07;;
16839;SDS011;8536;52.150;11.572;2022-08-19T11:23:46;9.65;;;8.00;;
16839;SDS011;8536;52.150;11.572;2022-08-19T11:26:13;12.30;;;9.07;;
16839;SDS011;8536;52.150;11.572;2022-08-19T11:28:40;10.40;;;9.15;;
16839;SDS011;8536;52.150;11.572;2022-08-19T11:31:15;10.88;;;9.07;;
16839;SDS011;8536;52.150;11.572;2022-08-19T11:33:43;11.68;;;8.82;;
16839;SDS011;8536;52.150;11.572;2022-08-19T11:36:13;11.38;;;9.85;;
16839;SDS011;8536;52.150;11.572;2022-08-19T11:38:40;9.75;;;8.57;;
16839;SDS011;8536;52.150;11.572;2022-08-19T11:41:06;10.93;;;9.27;;
16839;SDS011;8536;52.150;11.572;2022-08-19T11:43:33;10.30;;;8.70;;
16839;SDS011;8536;52.150;11.572;2022-08-19T11:46:06;8.00;;;7.15;;
16839;SDS011;8536;52.150;11.572;2022-08-19T11:48:34;10.52;;;9.02;;
16839;SDS011;8536;52.150;11.572;2022-08-19T11:51:03;8.23;;;7.32;;
16839;SDS011;8536;52.150;11.572;2022-08-19T11:53:32;7.20;;;6.50;;
16839;SDS011;8536;52.150;11.572;2022-08-19T11:56:00;7.93;;;7.22;;
16839;SDS011;8536;52.150;11.572;2022-08-19T11:58:26;10.27;;;9.18;;
16839;SDS011;8536;52.150;11.572;2022-08-19T12:00:53;9.32;;;8.00;;
16839;SDS011;8536;52.150;11.572;2022-08-19T12:03:19;8.55;;;7.63;;
16839;SDS011;8536;52.150;11.572;2022-08-19T12:05:46;8.38;;;7.57;;
16839;SDS011;8536;52.150;11.572;2022-08-19T12:08:13;8.95;;;8.10;;
16839;SDS011;8536;52.150;11.572;2022-08-19T12:10:40;8.38;;;7.43;;
16839;SDS011;8536;52.150;11.572;2022-08-19T12:13:08;9.60;;;8.70;;
16839;SDS011;8536;52.150;11.572;2022-08-19T12:15:39;8.63;;;7.85;;
16839;SDS011;8536;52.150;11.572;2022-08-19T12:18:07;7.60;;;6.85;;
16839;SDS011;8536;52.150;11.572;2022-08-19T12:20:35;8.40;;;7.32;;
16839;SDS011;8536;52.150;11.572;2022-08-19T12:23:03;8.68;;;7.88;;
16839;SDS011;8536;52.150;11.572;2022-08-19T12:25:30;7.45;;;6.85;;
16839;SDS011;8536;52.150;11.572;2022-08-19T12:27:57;8.77;;;6.95;;
16839;SDS011;8536;52.150;11.572;2022-08-19T12:30:24;8.23;;;7.43;;
16839;SDS011;8536;52.150;11.572;2022-08-19T12:32:51;8.25;;;7.45;;
16839;SDS011;8536;52.150;11.572;2022-08-19T12:35:18;7.70;;;6.28;;
16839;SDS011;8536;52.150;11.572;2022-08-19T12:37:47;8.52;;;7.68;;
16839;SDS011;8536;52.150;11.572;2022-08-19T12:40:22;7.38;;;6.68;;
16839;SDS011;8536;52.150;11.572;2022-08-19T12:42:51;9.20;;;7.72;;
16839;SDS011;8536;52.150;11.572;2022-08-19T12:45:18;8.27;;;7.45;;
16839;SDS011;8536;52.150;11.572;2022-08-19T12:47:45;9.30;;;7.47;;
16839;SDS011;8536;52.150;11.572;2022-08-19T12:50:14;7.20;;;6.60;;
16839;SDS011;8536;52.150;11.572;2022-08-19T12:52:41;8.07;;;7.00;;
16839;SDS011;8536;52.150;11.572;2022-08-19T12:55:09;8.50;;;6.75;;
16839;SDS011;8536;52.150;11.572;2022-08-19T12:57:38;6.32;;;5.78;;
16839;SDS011;8536;52.150;11.572;2022-08-19T13:00:12;6.78;;;5.88;;
16839;SDS011;8536;52.150;11.572;2022-08-19T13:02:42;6.60;;;5.97;;
16839;SDS011;8536;52.150;11.572;2022-08-19T13:05:15;7.38;;;6.68;;
16839;SDS011;8536;52.150;11.572;2022-08-19T13:07:52;6.60;;;6.00;;
16839;SDS011;8536;52.150;11.572;2022-08-19T13:10:24;6.70;;;6.07;;
16839;SDS011;8536;52.150;11.572;2022-08-19T13:12:54;8.02;;;7.22;;
16839;SDS011;8536;52.150;11.572;2022-08-19T13:15:22;7.88;;;6.50;;
16839;SDS011;8536;52.150;11.572;2022-08-19T13:17:50;7.35;;;6.65;;
16839;SDS011;8536;52.150;11.572;2022-08-19T13:20:18;6.97;;;5.80;;
16839;SDS011;8536;52.150;11.572;2022-08-19T13:22:46;7.20;;;6.50;;
16839;SDS011;8536;52.150;11.572;2022-08-19T13:25:14;6.78;;;6.18;;
16839;SDS011;8536;52.150;11.572;2022-08-19T13:27:43;6.32;;;5.72;;
16839;SDS011;8536;52.150;11.572;2022-08-19T13:30:10;7.28;;;6.50;;
16839;SDS011;8536;52.150;11.572;2022-08-19T13:32:58;7.82;;;6.88;;
16839;SDS011;8536;52.150;11.572;2022-08-19T13:35:41;7.22;;;6.63;;
16839;SDS011;8536;52.150;11.572;2022-08-19T13:38:21;6.95;;;6.35;;
16839;SDS011;8536;52.150;11.572;2022-08-19T13:40:49;7.07;;;6.47;;
16839;SDS011;8536;52.150;11.572;2022-08-19T13:43:18;7.30;;;6.60;;
16839;SDS011;8536;52.150;11.572;2022-08-19T13:45:53;6.50;;;5.90;;
16839;SDS011;8536;52.150;11.572;2022-08-19T13:48:22;8.32;;;6.32;;
16839;SDS011;8536;52.150;11.572;2022-08-19T13:50:52;6.10;;;5.53;;
16839;SDS011;8536;52.150;11.572;2022-08-19T13:53:20;7.60;;;6.35;;
16839;SDS011;8536;52.150;11.572;2022-08-19T13:55:46;7.22;;;6.63;;
16839;SDS011;8536;52.150;11.572;2022-08-19T13:58:13;6.82;;;6.13;;
16839;SDS011;8536;52.150;11.572;2022-08-19T14:00:41;7.05;;;6.25;;
16839;SDS011;8536;52.150;11.572;2022-08-19T14:03:09;7.18;;;6.57;;
16839;SDS011;8536;52.150;11.572;2022-08-19T14:05:35;6.05;;;5.55;;
16839;SDS011;8536;52.150;11.572;2022-08-19T14:08:02;6.72;;;5.88;;
16839;SDS011;8536;52.150;11.572;2022-08-19T14:10:28;6.68;;;6.07;;
16839;SDS011;8536;52.150;11.572;2022-08-19T14:12:58;6.53;;;6.03;;
16839;SDS011;8536;52.150;11.572;2022-08-19T14:15:26;7.22;;;6.53;;
16839;SDS011;8536;52.150;11.572;2022-08-19T14:17:53;7.05;;;6.00;;
16839;SDS011;8536;52.150;11.572;2022-08-19T14:20:20;6.93;;;6.22;;
16839;SDS011;8536;52.150;11.572;2022-08-19T14:22:51;6.30;;;5.53;;
16839;SDS011;8536;52.150;11.572;2022-08-19T14:25:20;5.82;;;5.32;;
16839;SDS011;8536;52.150;11.572;2022-08-19T14:27:49;6.63;;;5.90;;
16839;SDS011;8536;52.150;11.572;2022-08-19T14:30:21;6.55;;;5.95;;
16839;SDS011;8536;52.150;11.572;2022-08-19T14:32:52;6.55;;;5.85;;
16839;SDS011;8536;52.150;11.572;2022-08-19T14:35:20;6.45;;;5.85;;
16839;SDS011;8536;52.150;11.572;2022-08-19T14:37:48;6.22;;;5.63;;
16839;SDS011;8536;52.150;11.572;2022-08-19T14:40:16;6.00;;;5.50;;
16839;SDS011;8536;52.150;11.572;2022-08-19T14:42:46;6.22;;;5.63;;
16839;SDS011;8536;52.150;11.572;2022-08-19T14:45:14;5.93;;;5.32;;
16839;SDS011;8536;52.150;11.572;2022-08-19T14:47:41;6.10;;;5.50;;
16839;SDS011;8536;52.150;11.572;2022-08-19T14:50:10;5.90;;;5.40;;
16839;SDS011;8536;52.150;11.572;2022-08-19T14:52:44;6.15;;;5.55;;
16839;SDS011;8536;52.150;11.572;2022-08-19T14:55:11;6.32;;;5.72;;
16839;SDS011;8536;52.150;11.572;2022-08-19T14:57:37;5.95;;;5.38;;